createdAt,value
2019-02-15T00:02:04.385Z,2.20
2019-02-15T00:04:33.226Z,2.20
2019-02-15T00:07:02.826Z,2.10
2019-02-15T00:09:32.405Z,2.30
2019-02-15T00:12:01.237Z,2.30
2019-02-15T00:14:30.825Z,2.20
2019-02-15T00:16:59.692Z,2.10
2019-02-15T00:19:32.291Z,2.20
2019-02-15T00:22:01.144Z,2.10
2019-02-15T00:24:29.980Z,2.10
2019-02-15T00:26:59.559Z,2.00
2019-02-15T00:29:28.426Z,1.90
2019-02-15T00:31:57.243Z,1.80
2019-02-15T00:34:26.213Z,1.80
2019-02-15T00:36:54.924Z,1.80
2019-02-15T00:39:23.761Z,1.80
2019-02-15T00:41:52.618Z,1.80
2019-02-15T00:44:21.458Z,1.70
2019-02-15T00:46:51.167Z,1.80
2019-02-15T00:49:20.005Z,1.80
2019-02-15T00:51:50.346Z,1.70
2019-02-15T00:54:20.994Z,1.70
2019-02-15T00:56:56.483Z,1.60
2019-02-15T00:59:28.251Z,1.70
2019-02-15T01:02:03.278Z,1.60
2019-02-15T01:07:02.489Z,1.50
2019-02-15T01:09:31.349Z,1.70
2019-02-15T01:12:03.111Z,1.70
2019-02-15T01:14:31.947Z,1.70
2019-02-15T01:17:00.801Z,1.60
2019-02-15T01:19:29.648Z,1.70
2019-02-15T01:21:58.500Z,1.60
2019-02-15T01:24:27.351Z,1.60
2019-02-15T01:26:56.191Z,1.70
2019-02-15T01:29:28.856Z,1.70
2019-02-15T01:32:00.433Z,1.60
2019-02-15T01:34:29.259Z,1.60
2019-02-15T01:36:58.845Z,1.60
2019-02-15T01:39:27.673Z,1.50
2019-02-15T01:41:56.588Z,1.50
2019-02-15T01:44:25.463Z,1.50
2019-02-15T01:46:54.335Z,1.50
2019-02-15T01:49:23.208Z,1.50
2019-02-15T01:51:51.972Z,1.50
2019-02-15T01:54:20.839Z,1.50
2019-02-15T01:56:49.716Z,1.50
2019-02-15T01:59:18.552Z,1.50
2019-02-15T02:01:47.388Z,1.50
2019-02-15T02:04:16.217Z,1.40
2019-02-15T02:06:45.067Z,1.40
2019-02-15T02:09:13.909Z,1.30
2019-02-15T02:11:42.746Z,1.40
2019-02-15T02:14:11.600Z,1.30
2019-02-15T02:16:40.458Z,1.30
2019-02-15T02:19:10.037Z,1.20
2019-02-15T02:21:38.873Z,1.30
2019-02-15T02:24:07.711Z,1.30
2019-02-15T02:26:36.553Z,1.30
2019-02-15T02:29:05.630Z,1.30
2019-02-15T02:31:34.211Z,1.20
2019-02-15T02:34:03.784Z,1.20
2019-02-15T02:36:45.335Z,1.10
2019-02-15T02:39:14.189Z,1.10
2019-02-15T02:41:43.013Z,1.10
2019-02-15T02:44:11.852Z,1.20
2019-02-15T02:46:40.702Z,1.20
2019-02-15T02:49:09.539Z,1.20
2019-02-15T02:51:38.385Z,1.20
2019-02-15T02:54:07.228Z,1.30
2019-02-15T02:56:36.055Z,1.20
2019-02-15T02:59:04.890Z,1.20
2019-02-15T03:01:33.729Z,1.20
2019-02-15T03:04:02.577Z,1.30
2019-02-15T03:06:32.162Z,1.20
2019-02-15T03:11:30.417Z,1.20
2019-02-15T03:14:08.989Z,1.20
2019-02-15T03:16:28.858Z,1.20
2019-02-15T03:18:57.695Z,1.40
2019-02-15T03:21:26.543Z,1.40
2019-02-15T03:23:55.388Z,1.20
2019-02-15T03:26:24.219Z,1.20
2019-02-15T03:28:53.830Z,1.10
2019-02-15T03:31:22.684Z,1.20
2019-02-15T03:33:51.508Z,1.30
2019-02-15T03:36:21.834Z,1.20
2019-02-15T03:38:51.423Z,1.10
2019-02-15T03:41:26.059Z,1.10
2019-02-15T03:43:54.904Z,1.10
2019-02-15T03:46:23.737Z,1.10
2019-02-15T03:48:53.300Z,1.00
2019-02-15T03:51:22.145Z,1.10
2019-02-15T03:53:51.736Z,1.00
2019-02-15T03:56:20.579Z,0.90
2019-02-15T03:58:49.423Z,0.90
2019-02-15T04:01:19.005Z,0.80
2019-02-15T04:03:47.835Z,0.90
2019-02-15T04:06:16.709Z,0.90
2019-02-15T04:08:45.536Z,0.80
2019-02-15T04:11:14.371Z,0.70
2019-02-15T04:13:43.238Z,0.70
2019-02-15T04:16:12.062Z,0.70
2019-02-15T04:18:41.646Z,0.70
2019-02-15T04:21:10.481Z,0.60
2019-02-15T04:23:39.333Z,0.60
2019-02-15T04:26:08.173Z,0.50
2019-02-15T04:28:37.061Z,0.60
2019-02-15T04:31:05.919Z,0.50
2019-02-15T04:33:35.499Z,0.50
2019-02-15T04:36:17.193Z,0.50
2019-02-15T04:38:46.057Z,0.60
2019-02-15T04:41:14.905Z,0.70
2019-02-15T04:43:43.791Z,0.70
2019-02-15T04:46:12.678Z,0.70
2019-02-15T04:48:41.506Z,0.60
2019-02-15T04:51:10.394Z,0.50
2019-02-15T04:53:39.245Z,0.60
2019-02-15T04:56:08.107Z,0.60
2019-02-15T04:58:36.962Z,0.60
2019-02-15T05:01:05.820Z,0.50
2019-02-15T05:03:34.705Z,0.50
2019-02-15T05:06:03.558Z,0.50
2019-02-15T05:08:32.438Z,0.50
2019-02-15T05:11:01.280Z,0.50
2019-02-15T05:13:30.134Z,0.40
2019-02-15T05:15:59.111Z,0.40
2019-02-15T05:18:27.965Z,0.40
2019-02-15T05:20:56.804Z,0.40
2019-02-15T05:23:25.714Z,0.30
2019-02-15T05:25:54.570Z,0.30
2019-02-15T05:28:23.471Z,0.30
2019-02-15T05:30:52.306Z,0.40
2019-02-15T05:33:21.163Z,0.30
2019-02-15T05:35:50.028Z,0.30
2019-02-15T05:38:18.883Z,0.30
2019-02-15T05:40:47.727Z,0.30
2019-02-15T05:43:16.565Z,0.30
2019-02-15T05:45:46.149Z,0.30
2019-02-15T05:48:15.003Z,0.30
2019-02-15T05:50:43.838Z,0.20
2019-02-15T05:53:12.683Z,0.30
2019-02-15T05:55:41.534Z,0.30
2019-02-15T05:58:10.390Z,0.30
2019-02-15T06:00:39.231Z,0.20
2019-02-15T06:03:08.076Z,0.20
2019-02-15T06:05:36.931Z,0.20
2019-02-15T06:08:05.768Z,0.20
2019-02-15T06:10:34.646Z,0.30
2019-02-15T06:13:03.478Z,0.30
2019-02-15T06:15:32.330Z,0.30
2019-02-15T06:18:01.185Z,0.30
2019-02-15T06:20:30.049Z,0.30
2019-02-15T06:22:58.901Z,0.30
2019-02-15T06:25:27.765Z,0.20
2019-02-15T06:27:57.354Z,0.20
2019-02-15T06:30:26.219Z,0.20
2019-02-15T06:32:55.085Z,0.30
2019-02-15T06:35:23.932Z,0.20
2019-02-15T06:37:52.795Z,0.20
2019-02-15T06:40:21.631Z,0.20
2019-02-15T06:42:50.507Z,0.20
2019-02-15T06:45:24.595Z,0.20
2019-02-15T06:47:48.173Z,0.20
2019-02-15T06:50:17.035Z,0.20
2019-02-15T06:52:45.872Z,0.30
2019-02-15T06:55:15.474Z,0.20
2019-02-15T06:57:44.354Z,0.30
2019-02-15T07:00:13.177Z,0.30
2019-02-15T07:02:42.030Z,0.20
2019-02-15T07:05:14.774Z,0.30
2019-02-15T07:07:43.638Z,0.30
2019-02-15T07:10:12.486Z,0.30
2019-02-15T07:12:41.348Z,0.40
2019-02-15T07:15:10.200Z,0.50
2019-02-15T07:17:39.096Z,0.50
2019-02-15T07:20:07.953Z,0.50
2019-02-15T07:22:36.843Z,0.50
2019-02-15T07:25:06.493Z,0.50
2019-02-15T07:27:35.313Z,0.50
2019-02-15T07:30:04.201Z,0.60
2019-02-15T07:32:33.012Z,0.60
2019-02-15T07:35:01.915Z,0.70
2019-02-15T07:37:30.742Z,0.70
2019-02-15T07:39:59.594Z,0.70
2019-02-15T07:42:28.503Z,0.70
2019-02-15T07:44:57.355Z,0.80
2019-02-15T07:47:26.229Z,0.80
2019-02-15T07:49:55.074Z,0.80
2019-02-15T07:52:23.936Z,0.80
2019-02-15T07:54:52.749Z,0.90
2019-02-15T07:57:21.597Z,0.90
2019-02-15T07:59:50.619Z,0.90
2019-02-15T08:02:19.294Z,1.00
2019-02-15T08:04:48.144Z,1.00
2019-02-15T08:07:16.988Z,1.00
2019-02-15T08:09:45.846Z,1.00
2019-02-15T08:12:14.731Z,1.10
2019-02-15T08:14:43.596Z,1.10
2019-02-15T08:17:12.458Z,1.20
2019-02-15T08:19:41.325Z,1.20
2019-02-15T08:22:10.128Z,1.30
2019-02-15T08:24:39.036Z,1.30
2019-02-15T08:27:07.911Z,1.40
2019-02-15T08:29:36.766Z,1.50
2019-02-15T08:32:05.611Z,1.50
2019-02-15T08:34:34.476Z,1.60
2019-02-15T08:37:03.330Z,1.70
2019-02-15T08:39:32.205Z,1.70
2019-02-15T08:42:03.904Z,1.80
2019-02-15T08:44:29.866Z,1.90
2019-02-15T08:46:58.767Z,1.90
2019-02-15T08:49:27.595Z,2.00
2019-02-15T08:51:57.216Z,2.00
2019-02-15T08:54:26.057Z,2.20
2019-02-15T08:56:54.902Z,2.20
2019-02-15T08:59:23.788Z,2.20
2019-02-15T09:01:58.392Z,2.30
2019-02-15T09:04:27.255Z,2.30
2019-02-15T09:06:56.124Z,2.40
2019-02-15T09:09:25.007Z,2.50
2019-02-15T09:11:53.876Z,2.50
2019-02-15T09:14:22.679Z,2.60
2019-02-15T09:16:51.556Z,2.70
2019-02-15T09:19:20.410Z,2.80
2019-02-15T09:21:49.282Z,2.80
2019-02-15T09:24:18.149Z,2.90
2019-02-15T09:26:47.041Z,2.90
2019-02-15T09:29:15.934Z,3.00
2019-02-15T09:31:44.763Z,3.10
2019-02-15T09:34:13.620Z,3.20
2019-02-15T09:36:42.488Z,3.20
2019-02-15T09:39:11.340Z,3.30
2019-02-15T09:41:40.931Z,3.30
2019-02-15T09:44:09.772Z,3.40
2019-02-15T09:46:38.803Z,3.50
2019-02-15T09:49:08.250Z,3.70
2019-02-15T09:51:37.844Z,3.80
2019-02-15T09:54:06.726Z,3.90
2019-02-15T09:56:35.579Z,4.00
2019-02-15T09:59:04.423Z,4.10
2019-02-15T10:04:02.748Z,4.30
2019-02-15T10:06:31.594Z,4.40
2019-02-15T10:09:00.493Z,4.50
2019-02-15T10:11:29.366Z,4.60
2019-02-15T10:13:58.196Z,4.70
2019-02-15T10:16:30.787Z,4.80
2019-02-15T10:18:55.930Z,4.90
2019-02-15T10:21:24.787Z,5.00
2019-02-15T10:23:53.655Z,5.10
2019-02-15T10:26:22.494Z,5.20
2019-02-15T10:28:51.357Z,5.30
2019-02-15T10:31:20.205Z,5.40
2019-02-15T10:33:49.070Z,5.40
2019-02-15T10:36:18.961Z,5.50
2019-02-15T10:38:46.858Z,5.70
2019-02-15T10:41:15.764Z,5.70
2019-02-15T10:43:45.358Z,5.80
2019-02-15T10:46:15.063Z,5.90
2019-02-15T10:48:43.872Z,5.90
2019-02-15T10:51:13.477Z,5.90
2019-02-15T10:53:43.083Z,6.00
2019-02-15T10:56:12.674Z,6.10
2019-02-15T10:58:41.682Z,6.20
2019-02-15T11:01:10.567Z,6.30
2019-02-15T11:03:39.424Z,6.40
2019-02-15T11:06:08.310Z,6.50
2019-02-15T11:08:37.166Z,6.50
2019-02-15T11:11:06.046Z,6.60
2019-02-15T11:13:34.946Z,6.60
2019-02-15T11:16:04.512Z,6.60
2019-02-15T11:18:34.114Z,6.80
2019-02-15T11:21:02.980Z,6.90
2019-02-15T11:23:31.854Z,7.00
2019-02-15T11:26:00.778Z,7.20
2019-02-15T11:28:29.616Z,7.30
2019-02-15T11:30:58.514Z,7.40
2019-02-15T11:33:27.327Z,7.50
2019-02-15T11:35:57.343Z,7.50
2019-02-15T11:38:26.158Z,7.40
2019-02-15T11:40:55.023Z,7.50
2019-02-15T11:43:23.880Z,7.70
2019-02-15T11:45:52.734Z,7.70
2019-02-15T11:48:21.580Z,7.80
2019-02-15T11:50:50.433Z,7.80
2019-02-15T11:53:19.295Z,8.10
2019-02-15T11:55:48.325Z,8.00
2019-02-15T11:58:17.148Z,8.10
2019-02-15T12:00:46.009Z,8.20
2019-02-15T12:03:14.861Z,8.30
2019-02-15T12:05:43.726Z,8.30
2019-02-15T12:08:12.567Z,8.40
2019-02-15T12:10:41.495Z,8.40
2019-02-15T12:13:10.304Z,8.60
2019-02-15T12:15:39.195Z,8.50
2019-02-15T12:18:08.021Z,8.80
2019-02-15T12:20:36.872Z,9.00
2019-02-15T12:23:05.727Z,9.20
2019-02-15T12:25:34.578Z,9.20
2019-02-15T12:28:03.486Z,9.30
2019-02-15T12:30:32.318Z,9.10
2019-02-15T12:33:01.169Z,9.10
2019-02-15T12:35:30.028Z,9.10
2019-02-15T12:37:59.691Z,9.00
2019-02-15T12:40:28.512Z,9.10
2019-02-15T12:42:57.388Z,9.10
2019-02-15T12:45:26.250Z,9.20
2019-02-15T12:47:55.107Z,9.40
2019-02-15T12:50:24.770Z,9.50
2019-02-15T12:52:53.899Z,9.40
2019-02-15T12:55:22.487Z,9.80
2019-02-15T12:57:52.082Z,10.10
2019-02-15T13:00:21.014Z,10.00
2019-02-15T13:02:49.918Z,10.00
2019-02-15T13:05:18.740Z,9.90
2019-02-15T13:07:47.603Z,9.90
2019-02-15T13:10:17.367Z,10.00
2019-02-15T13:12:46.261Z,10.00
2019-02-15T13:15:15.150Z,10.00
2019-02-15T13:17:43.964Z,10.10
2019-02-15T13:20:12.856Z,10.30
2019-02-15T13:22:41.727Z,10.20
2019-02-15T13:25:10.658Z,10.30
2019-02-15T13:27:39.505Z,10.30
2019-02-15T13:30:10.107Z,10.30
2019-02-15T13:32:38.932Z,10.40
2019-02-15T13:35:07.805Z,10.50
2019-02-15T13:37:36.629Z,10.50
2019-02-15T13:40:05.540Z,10.50
2019-02-15T13:42:34.362Z,10.70
2019-02-15T13:45:03.263Z,10.90
2019-02-15T13:47:34.648Z,11.10
2019-02-15T13:50:01.042Z,11.00
2019-02-15T13:52:29.875Z,10.90
2019-02-15T13:54:58.739Z,11.00
2019-02-15T13:57:27.616Z,11.30
2019-02-15T13:59:57.241Z,11.40
2019-02-15T14:02:26.095Z,11.30
2019-02-15T14:04:54.985Z,11.30
2019-02-15T14:07:23.809Z,11.30
2019-02-15T14:09:52.659Z,11.10
2019-02-15T14:12:21.528Z,11.20
2019-02-15T14:14:50.388Z,11.30
2019-02-15T14:17:19.255Z,11.30
2019-02-15T14:19:48.117Z,11.30
2019-02-15T14:22:16.996Z,11.40
2019-02-15T14:24:45.875Z,11.40
2019-02-15T14:27:14.706Z,11.60
2019-02-15T14:29:43.570Z,11.50
2019-02-15T14:32:12.457Z,11.50
2019-02-15T14:34:41.332Z,11.60
2019-02-15T14:37:10.176Z,11.60
2019-02-15T14:39:39.050Z,11.60
2019-02-15T14:42:07.893Z,11.50
2019-02-15T14:44:36.739Z,11.50
2019-02-15T14:47:05.598Z,11.30
2019-02-15T14:49:34.448Z,11.30
2019-02-15T14:52:03.306Z,11.20
2019-02-15T14:54:32.142Z,11.20
2019-02-15T14:57:01.028Z,11.20
2019-02-15T14:59:30.185Z,11.20
2019-02-15T15:01:59.017Z,11.00
2019-02-15T15:04:27.869Z,11.00
2019-02-15T15:06:56.738Z,10.90
2019-02-15T15:09:25.600Z,10.90
2019-02-15T15:11:54.486Z,11.00
2019-02-15T15:14:23.346Z,11.00
2019-02-15T15:16:53.125Z,11.10
2019-02-15T15:19:21.822Z,11.00
2019-02-15T15:21:50.707Z,11.00
2019-02-15T15:24:20.342Z,10.90
2019-02-15T15:26:49.953Z,10.80
2019-02-15T15:29:18.821Z,10.70
2019-02-15T15:31:47.711Z,10.70
2019-02-15T15:34:16.591Z,10.60
2019-02-15T15:36:45.467Z,10.50
2019-02-15T15:39:14.339Z,10.30
2019-02-15T15:44:16.999Z,10.20
2019-02-15T15:46:45.863Z,10.20
2019-02-15T15:49:16.733Z,10.00
2019-02-15T15:51:43.551Z,9.90
2019-02-15T15:54:12.386Z,9.90
2019-02-15T15:56:41.235Z,9.80
2019-02-15T15:59:10.105Z,9.90
2019-02-15T16:01:38.983Z,10.30
2019-02-15T16:04:07.860Z,10.10
2019-02-15T16:06:37.420Z,10.10
2019-02-15T16:09:06.299Z,10.10
2019-02-15T16:11:35.150Z,10.20
2019-02-15T16:14:04.011Z,10.20
2019-02-15T16:16:33.647Z,10.00
2019-02-15T16:19:02.471Z,9.80
2019-02-15T16:21:31.333Z,9.90
2019-02-15T16:24:00.192Z,9.90
2019-02-15T16:26:29.039Z,9.90
2019-02-15T16:28:57.904Z,9.80
2019-02-15T16:31:26.740Z,9.70
2019-02-15T16:33:56.367Z,9.70
2019-02-15T16:36:25.300Z,9.60
2019-02-15T16:38:54.067Z,9.60
2019-02-15T16:41:22.907Z,9.40
2019-02-15T16:43:52.516Z,9.40
2019-02-15T16:46:22.098Z,9.30
2019-02-15T16:48:50.942Z,9.30
2019-02-15T16:51:19.792Z,9.20
2019-02-15T16:56:18.078Z,9.20
2019-02-15T16:58:46.911Z,9.00
2019-02-15T17:01:15.751Z,8.90
2019-02-15T17:03:44.663Z,8.90
2019-02-15T17:06:13.457Z,8.80
2019-02-15T17:08:43.035Z,8.70
2019-02-15T17:11:11.876Z,8.70
2019-02-15T17:13:40.711Z,8.70
2019-02-15T17:18:38.982Z,8.50
2019-02-15T17:21:07.840Z,8.50
2019-02-15T17:23:36.673Z,8.40
2019-02-15T17:26:05.516Z,8.40
2019-02-15T17:28:34.357Z,8.30
2019-02-15T17:31:03.207Z,8.30
2019-02-15T17:33:32.045Z,8.20
2019-02-15T17:36:00.908Z,8.10
2019-02-15T17:38:29.742Z,8.00
2019-02-15T17:40:59.366Z,7.90
2019-02-15T17:43:28.178Z,7.90
2019-02-15T17:45:57.018Z,7.90
2019-02-15T17:48:26.603Z,7.70
2019-02-15T17:50:55.424Z,7.70
2019-02-15T17:53:24.255Z,7.60
2019-02-15T17:55:53.094Z,7.60
2019-02-15T17:58:22.673Z,7.50
2019-02-15T18:00:51.523Z,7.50
2019-02-15T18:03:20.358Z,7.40
2019-02-15T18:05:49.193Z,7.40
2019-02-15T18:08:18.062Z,7.30
2019-02-15T18:10:47.659Z,7.40
2019-02-15T18:13:16.503Z,7.50
2019-02-15T18:15:45.481Z,7.30
2019-02-15T18:18:14.336Z,7.30
2019-02-15T18:20:43.212Z,7.40
2019-02-15T18:23:12.048Z,7.40
2019-02-15T18:25:40.891Z,7.30
2019-02-15T18:28:09.736Z,7.30
2019-02-15T18:30:38.569Z,7.20
2019-02-15T18:33:07.427Z,7.20
2019-02-15T18:35:36.267Z,7.20
2019-02-15T18:38:05.129Z,7.30
2019-02-15T18:40:33.969Z,7.60
2019-02-15T18:43:02.823Z,7.50
2019-02-15T18:45:31.657Z,7.40
2019-02-15T18:48:00.506Z,7.40
2019-02-15T18:50:30.110Z,7.30
2019-02-15T18:52:59.698Z,7.30
2019-02-15T18:55:28.552Z,7.30
2019-02-15T18:57:57.392Z,7.30
2019-02-15T19:00:26.984Z,7.10
2019-02-15T19:02:55.827Z,7.10
2019-02-15T19:05:24.683Z,7.10
2019-02-15T19:10:23.018Z,7.00
2019-02-15T19:12:52.569Z,6.90
2019-02-15T19:15:21.447Z,6.90
2019-02-15T19:17:50.297Z,6.80
2019-02-15T19:20:19.140Z,6.70
2019-02-15T19:25:17.519Z,6.60
2019-02-15T19:27:46.404Z,6.60
2019-02-15T19:30:15.226Z,6.60
2019-02-15T19:32:44.374Z,6.50
2019-02-15T19:35:13.164Z,6.50
2019-02-15T19:37:41.978Z,6.40
2019-02-15T19:40:11.582Z,6.30
2019-02-15T19:42:40.463Z,6.30
2019-02-15T19:45:09.428Z,6.20
2019-02-15T19:47:38.169Z,6.20
2019-02-15T19:50:08.854Z,6.10
2019-02-15T19:52:37.659Z,6.20
2019-02-15T19:55:06.560Z,6.10
2019-02-15T19:57:35.394Z,6.00
2019-02-15T20:00:04.297Z,6.00
2019-02-15T20:02:33.844Z,5.90
2019-02-15T20:05:02.692Z,6.00
2019-02-15T20:07:31.557Z,5.90
2019-02-15T20:10:01.149Z,5.80
2019-02-15T20:12:30.067Z,5.80
2019-02-15T20:14:58.877Z,5.80
2019-02-15T20:17:27.755Z,5.70
2019-02-15T20:19:56.622Z,5.60
2019-02-15T20:22:26.210Z,5.60
2019-02-15T20:24:55.102Z,5.50
2019-02-15T20:27:23.947Z,5.50
2019-02-15T20:29:52.828Z,5.50
2019-02-15T20:32:21.676Z,5.40
2019-02-15T20:34:50.565Z,5.40
2019-02-15T20:37:20.153Z,5.50
2019-02-15T20:39:49.007Z,5.40
2019-02-15T20:42:17.851Z,5.40
2019-02-15T20:44:46.694Z,5.40
2019-02-15T20:47:15.716Z,5.30
2019-02-15T20:49:44.533Z,5.20
2019-02-15T20:52:13.413Z,5.10
2019-02-15T20:54:42.993Z,5.10
2019-02-15T20:57:11.862Z,5.20
2019-02-15T20:59:40.708Z,5.10
2019-02-15T21:02:09.567Z,5.10
2019-02-15T21:04:38.433Z,5.10
2019-02-15T21:07:07.409Z,5.00
2019-02-15T21:09:36.255Z,5.00
2019-02-15T21:12:05.850Z,5.00
2019-02-15T21:17:04.122Z,5.10
2019-02-15T21:19:32.966Z,5.00
2019-02-15T21:22:01.874Z,4.90
2019-02-15T21:24:31.456Z,4.90
2019-02-15T21:27:01.039Z,4.90
2019-02-15T21:29:29.902Z,4.80
2019-02-15T21:31:58.768Z,5.00
2019-02-15T21:34:27.610Z,4.80
2019-02-15T21:36:57.188Z,4.80
2019-02-15T21:39:26.051Z,4.80
2019-02-15T21:41:54.919Z,4.60
2019-02-15T21:44:23.778Z,4.60
2019-02-15T21:49:22.109Z,4.60
2019-02-15T21:51:50.946Z,4.50
2019-02-15T21:54:19.811Z,4.40
2019-02-15T21:56:48.692Z,4.40
2019-02-15T21:59:17.566Z,4.30
2019-02-15T22:01:46.436Z,4.20
2019-02-15T22:04:16.002Z,4.10
2019-02-15T22:06:44.846Z,4.10
2019-02-15T22:09:13.709Z,4.10
2019-02-15T22:14:12.020Z,4.10
2019-02-15T22:16:41.606Z,4.10
2019-02-15T22:19:10.465Z,4.10
2019-02-15T22:21:39.350Z,4.20
2019-02-15T22:24:08.883Z,4.20
2019-02-15T22:26:37.748Z,4.20
2019-02-15T22:29:06.636Z,4.10
2019-02-15T22:31:35.469Z,4.10
2019-02-15T22:34:05.067Z,4.10
2019-02-15T22:36:33.912Z,4.20
2019-02-15T22:39:02.755Z,4.20
2019-02-15T22:41:32.340Z,4.20
2019-02-15T22:44:01.186Z,4.20
2019-02-15T22:46:30.019Z,4.20
2019-02-15T22:48:58.850Z,4.20
2019-02-15T22:51:27.703Z,4.10
2019-02-15T22:53:56.549Z,4.10
2019-02-15T22:56:25.387Z,4.10
2019-02-15T22:58:54.237Z,4.10
2019-02-15T23:01:23.073Z,4.10
2019-02-15T23:03:51.921Z,4.00
2019-02-15T23:06:20.759Z,4.00
2019-02-15T23:08:50.331Z,3.90
2019-02-15T23:11:19.177Z,3.90
2019-02-15T23:13:48.115Z,3.90
2019-02-15T23:16:17.637Z,3.80
2019-02-15T23:18:46.472Z,3.80
2019-02-15T23:21:15.336Z,3.70
2019-02-15T23:23:44.166Z,3.70
2019-02-15T23:26:13.013Z,3.80
2019-02-15T23:28:41.870Z,3.80
2019-02-15T23:31:10.757Z,3.70
2019-02-15T23:33:39.644Z,3.70
2019-02-15T23:36:08.483Z,3.80
2019-02-15T23:38:37.347Z,3.60
2019-02-15T23:41:06.960Z,3.50
2019-02-15T23:43:36.549Z,3.50
2019-02-15T23:46:05.417Z,3.60
2019-02-15T23:48:34.249Z,3.60
2019-02-15T23:51:03.083Z,3.50
2019-02-15T23:53:31.936Z,3.50
2019-02-15T23:56:00.773Z,3.60
2019-02-15T23:58:29.643Z,3.60
